createdAt,value
2022-09-18T00:00:17.964Z,95.17
2022-09-18T00:05:19.593Z,95.04
2022-09-18T00:10:21.882Z,95.18
2022-09-18T00:15:25.419Z,95.37
2022-09-18T00:20:27.489Z,95.33
2022-09-18T00:25:30.057Z,95.93
2022-09-18T00:30:33.312Z,95.81
2022-09-18T00:35:35.198Z,95.75
2022-09-18T00:40:37.051Z,96.19
2022-09-18T00:45:40.652Z,96.25
2022-09-18T00:50:42.669Z,95.88
2022-09-18T00:55:44.686Z,96.11
2022-09-18T01:00:48.154Z,95.81
2022-09-18T01:06:06.049Z,95.69
2022-09-18T01:11:21.442Z,95.30
2022-09-18T01:16:33.010Z,94.58
2022-09-18T01:21:41.964Z,94.57
2022-09-18T01:26:55.230Z,94.39
2022-09-18T01:32:04.927Z,95.04
2022-09-18T01:37:11.869Z,94.57
2022-09-18T01:42:17.148Z,94.86
2022-09-18T01:47:25.569Z,95.16
2022-09-18T01:52:31.680Z,95.37
2022-09-18T01:57:37.745Z,95.28
2022-09-18T02:02:45.481Z,95.90
2022-09-18T02:07:54.926Z,95.91
2022-09-18T02:12:57.788Z,95.63
2022-09-18T02:18:05.888Z,96.14
2022-09-18T02:23:09.496Z,96.60
2022-09-18T02:28:15.973Z,96.90
2022-09-18T02:33:28.056Z,96.46
2022-09-18T02:38:35.525Z,96.65
2022-09-18T02:43:48.635Z,96.44
2022-09-18T02:49:02.833Z,96.08
2022-09-18T02:54:09.293Z,95.97
2022-09-18T02:59:16.963Z,94.99
2022-09-18T03:04:23.320Z,94.52
2022-09-18T03:09:25.639Z,93.98
2022-09-18T03:14:27.904Z,94.07
2022-09-18T03:19:30.821Z,93.26
2022-09-18T03:24:32.878Z,93.48
2022-09-18T03:29:34.923Z,93.47
2022-09-18T03:34:38.310Z,93.14
2022-09-18T03:39:39.977Z,93.03
2022-09-18T03:44:42.526Z,93.69
2022-09-18T03:49:47.315Z,93.42
2022-09-18T03:54:50.542Z,92.70
2022-09-18T03:59:52.971Z,93.16
2022-09-18T04:04:56.423Z,92.54
2022-09-18T04:09:58.131Z,92.75
2022-09-18T04:15:00.047Z,92.39
2022-09-18T04:20:05.509Z,92.48
2022-09-18T04:25:08.142Z,92.05
2022-09-18T04:30:10.745Z,92.12
2022-09-18T04:35:14.113Z,92.35
2022-09-18T04:40:16.188Z,92.64
2022-09-18T04:45:18.493Z,92.17
2022-09-18T04:50:21.537Z,91.95
2022-09-18T04:55:23.469Z,91.86
2022-09-18T05:00:26.011Z,91.41
2022-09-18T05:05:29.310Z,91.36
2022-09-18T05:10:31.355Z,90.85
2022-09-18T05:15:33.202Z,90.85
2022-09-18T05:20:36.135Z,90.13
2022-09-18T05:25:38.010Z,90.02
2022-09-18T05:30:39.623Z,89.49
2022-09-18T05:35:43.519Z,89.25
2022-09-18T05:40:45.309Z,89.24
2022-09-18T05:45:47.027Z,89.26
2022-09-18T05:50:50.008Z,89.45
2022-09-18T05:55:53.145Z,90.02
2022-09-18T06:00:57.604Z,90.05
2022-09-18T06:06:00.861Z,89.30
2022-09-18T06:11:06.146Z,88.53
2022-09-18T06:16:08.690Z,88.47
2022-09-18T06:21:12.080Z,87.86
2022-09-18T06:26:15.108Z,87.30
2022-09-18T06:31:17.159Z,86.98
2022-09-18T06:36:20.481Z,86.61
2022-09-18T06:41:23.898Z,86.76
2022-09-18T06:46:26.091Z,86.04
2022-09-18T06:51:29.517Z,84.84
2022-09-18T06:56:31.367Z,84.74
2022-09-18T07:01:33.915Z,83.24
2022-09-18T07:06:37.049Z,83.03
2022-09-18T07:11:39.205Z,82.64
2022-09-18T07:16:41.516Z,81.39
2022-09-18T07:21:44.818Z,79.80
2022-09-18T07:26:46.807Z,81.23
2022-09-18T07:31:48.674Z,80.14
2022-09-18T07:36:52.100Z,79.01
2022-09-18T07:41:54.100Z,78.20
2022-09-18T07:46:55.798Z,76.56
2022-09-18T07:51:59.182Z,75.53
2022-09-18T07:57:01.290Z,73.61
2022-09-18T08:02:04.925Z,72.92
2022-09-18T08:07:08.625Z,72.33
2022-09-18T08:12:10.277Z,74.16
2022-09-18T08:17:12.148Z,73.82
2022-09-18T08:22:15.534Z,73.45
2022-09-18T08:27:17.403Z,71.16
2022-09-18T08:32:19.424Z,70.59
2022-09-18T08:37:22.400Z,70.03
2022-09-18T08:42:31.778Z,69.70
2022-09-18T08:47:39.349Z,67.88
2022-09-18T08:52:46.708Z,68.73
2022-09-18T08:57:52.801Z,67.17
2022-09-18T09:03:01.296Z,66.09
2022-09-18T09:08:34.386Z,65.12
2022-09-18T09:14:07.921Z,66.02
2022-09-18T09:19:25.977Z,68.10
2022-09-18T09:24:32.609Z,65.92
2022-09-18T09:29:37.299Z,62.50
2022-09-18T09:34:44.194Z,64.34
2022-09-18T09:39:54.389Z,62.93
2022-09-18T09:45:03.990Z,62.82
2022-09-18T09:50:19.387Z,58.23
2022-09-18T09:55:28.350Z,46.14
2022-09-18T10:00:35.393Z,44.37
2022-09-18T10:05:42.469Z,44.44
2022-09-18T10:10:52.204Z,39.54
2022-09-18T10:15:59.467Z,41.98
2022-09-18T10:21:06.064Z,38.14
2022-09-18T10:26:17.474Z,43.36
2022-09-18T10:31:20.068Z,46.07
2022-09-18T10:36:28.805Z,53.96
2022-09-18T10:41:37.114Z,50.26
2022-09-18T10:46:41.630Z,53.08
2022-09-18T10:51:43.510Z,58.93
2022-09-18T10:56:46.506Z,60.17
2022-09-18T11:01:48.284Z,59.60
2022-09-18T11:06:50.326Z,63.02
2022-09-18T11:12:16.575Z,62.52
2022-09-18T11:17:25.572Z,58.73
2022-09-18T11:22:41.019Z,56.19
2022-09-18T11:27:52.500Z,56.79
2022-09-18T11:32:58.893Z,55.24
2022-09-18T11:38:04.322Z,53.09
2022-09-18T11:43:15.522Z,55.59
2022-09-18T11:48:26.454Z,53.56
2022-09-18T11:53:30.510Z,52.87
2022-09-18T11:58:41.953Z,55.73
2022-09-18T12:03:49.437Z,59.00
2022-09-18T12:08:55.068Z,57.18
2022-09-18T12:14:08.253Z,53.42
2022-09-18T12:19:14.441Z,52.95
2022-09-18T12:24:17.193Z,53.21
2022-09-18T12:29:35.109Z,55.27
2022-09-18T12:34:43.643Z,58.81
2022-09-18T12:40:02.765Z,67.88
2022-09-18T12:45:34.958Z,71.78
2022-09-18T12:50:52.071Z,71.87
2022-09-18T12:56:17.853Z,69.90
2022-09-18T13:01:30.612Z,68.61
2022-09-18T13:06:41.228Z,66.96
2022-09-18T13:11:46.611Z,67.95
2022-09-18T13:16:52.394Z,72.81
2022-09-18T13:21:57.004Z,77.33
2022-09-18T13:26:59.786Z,81.08
2022-09-18T13:32:03.010Z,81.84
2022-09-18T13:37:06.685Z,81.99
2022-09-18T13:42:08.706Z,81.89
2022-09-18T13:47:13.943Z,82.89
2022-09-18T13:52:40.917Z,82.64
2022-09-18T13:57:44.195Z,81.64
2022-09-18T14:02:48.069Z,81.16
2022-09-18T14:08:13.430Z,81.25
2022-09-18T14:13:37.718Z,81.08
2022-09-18T14:18:56.670Z,80.31
2022-09-18T14:24:36.687Z,79.77
2022-09-18T14:29:39.868Z,78.38
2022-09-18T14:34:44.069Z,78.94
2022-09-18T14:39:47.135Z,79.43
2022-09-18T14:44:51.975Z,79.22
2022-09-18T14:49:55.297Z,78.63
2022-09-18T14:54:58.960Z,78.75
2022-09-18T15:00:02.168Z,76.62
2022-09-18T15:05:11.653Z,72.15
2022-09-18T15:10:15.089Z,72.29
2022-09-18T15:15:30.401Z,71.88
2022-09-18T15:20:34.204Z,71.33
2022-09-18T15:25:40.384Z,70.45
2022-09-18T15:30:43.217Z,71.95
2022-09-18T15:35:51.474Z,72.73
2022-09-18T15:40:53.726Z,73.55
2022-09-18T15:46:02.290Z,71.75
2022-09-18T15:51:13.530Z,72.65
2022-09-18T15:56:20.687Z,74.00
2022-09-18T16:01:26.180Z,73.39
2022-09-18T16:06:32.270Z,74.88
2022-09-18T16:11:43.324Z,74.20
2022-09-18T16:16:45.066Z,74.61
2022-09-18T16:21:48.385Z,75.19
2022-09-18T16:26:50.071Z,75.54
2022-09-18T16:31:52.692Z,75.88
2022-09-18T16:36:57.118Z,76.61
2022-09-18T16:42:00.086Z,78.46
2022-09-18T16:47:05.754Z,78.51
2022-09-18T16:52:10.301Z,79.75
2022-09-18T16:57:16.156Z,80.05
2022-09-18T17:02:24.354Z,81.26
2022-09-18T17:07:29.969Z,82.22
2022-09-18T17:12:31.791Z,82.57
2022-09-18T17:17:33.500Z,82.93
2022-09-18T17:22:36.523Z,83.95
2022-09-18T17:27:41.801Z,84.31
2022-09-18T17:32:47.350Z,84.55
2022-09-18T17:37:50.445Z,85.33
2022-09-18T17:42:52.679Z,85.63
2022-09-18T17:47:54.451Z,86.37
2022-09-18T17:52:58.267Z,84.99
2022-09-18T17:58:00.283Z,85.16
2022-09-18T18:03:02.413Z,84.12
2022-09-18T18:08:06.354Z,83.71
2022-09-18T18:13:08.895Z,84.37
2022-09-18T18:18:10.708Z,84.20
2022-09-18T18:23:14.458Z,84.89
2022-09-18T18:28:16.928Z,84.48
2022-09-18T18:33:19.558Z,85.42
2022-09-18T18:38:23.295Z,86.57
2022-09-18T18:43:25.363Z,87.41
2022-09-18T18:48:27.444Z,87.14
2022-09-18T18:53:31.452Z,87.89
2022-09-18T18:58:34.331Z,87.96
2022-09-18T19:03:39.959Z,88.27
2022-09-18T19:08:44.924Z,87.82
2022-09-18T19:13:50.447Z,87.92
2022-09-18T19:18:53.680Z,88.34
2022-09-18T19:23:57.661Z,88.55
2022-09-18T19:29:01.385Z,88.72
2022-09-18T19:34:05.846Z,88.30
2022-09-18T19:39:12.469Z,88.65
2022-09-18T19:44:22.470Z,88.67
2022-09-18T19:49:30.511Z,88.36
2022-09-18T19:54:34.407Z,88.81
2022-09-18T19:59:36.245Z,89.12
2022-09-18T20:04:40.939Z,89.64
2022-09-18T20:09:44.708Z,90.93
2022-09-18T20:14:46.314Z,90.63
2022-09-18T20:19:48.541Z,91.59
2022-09-18T20:24:53.250Z,91.84
2022-09-18T20:29:55.127Z,91.99
2022-09-18T20:34:57.315Z,92.17
2022-09-18T20:40:00.927Z,92.34
2022-09-18T20:45:02.602Z,92.41
2022-09-18T20:50:05.717Z,92.45
2022-09-18T20:55:11.281Z,92.23
2022-09-18T21:00:14.930Z,92.03
2022-09-18T21:05:17.069Z,92.95
2022-09-18T21:10:20.413Z,93.20
2022-09-18T21:15:22.112Z,93.61
2022-09-18T21:20:24.052Z,93.94
2022-09-18T21:25:29.926Z,93.59
2022-09-18T21:30:31.711Z,94.47
2022-09-18T21:35:33.871Z,94.31
2022-09-18T21:40:37.159Z,94.49
2022-09-18T21:45:38.811Z,94.37
2022-09-18T21:50:40.807Z,94.98
2022-09-18T21:55:44.476Z,95.54
2022-09-18T22:00:46.897Z,96.05
2022-09-18T22:05:48.878Z,96.43
2022-09-18T22:10:51.797Z,96.33
2022-09-18T22:15:53.846Z,96.09
2022-09-18T22:20:56.034Z,96.13
2022-09-18T22:26:03.766Z,96.16
2022-09-18T22:31:05.897Z,95.75
2022-09-18T22:36:08.305Z,95.67
2022-09-18T22:41:11.907Z,96.08
2022-09-18T22:46:14.967Z,96.52
2022-09-18T22:51:18.662Z,96.01
2022-09-18T22:56:22.622Z,96.42
2022-09-18T23:01:28.052Z,96.48
2022-09-18T23:06:32.831Z,95.96
2022-09-18T23:11:36.354Z,96.17
2022-09-18T23:16:38.401Z,96.09
2022-09-18T23:21:40.583Z,96.34
2022-09-18T23:26:45.418Z,96.68
2022-09-18T23:31:49.554Z,96.58
2022-09-18T23:36:54.561Z,96.34
2022-09-18T23:41:59.099Z,96.32
2022-09-18T23:47:01.493Z,96.33
2022-09-18T23:52:03.584Z,96.15
2022-09-18T23:57:06.986Z,96.59
